| Date | Time | Temp. (oF) | Dew Point (oF) | Rel. Hum. (%) | Press. (in.) | Wind Dir. | Wind Speed (mph) | Hourly Rainfall (in.) |
|
|---|---|---|---|---|---|---|---|---|---|
| 1 | 12/24 | 00:00 | 28 | 25 | 89 | 30.01 | NW | 0 | 0.00 |
| 2 | 12/23 | 23:00 | 31 | 25 | 80 | 30.00 | WNW | 4 | 0.00 |
| 3 | 12/23 | 22:00 | 30 | 27 | 90 | 29.98 | NNE | 0 | 0.00 |
| 4 | 12/23 | 21:00 | 32 | 26 | 81 | 29.96 | W | 0 | 0.00 |
| 5 | 12/23 | 20:00 | 35 | 26 | 72 | 29.95 | SW | 3 | 0.00 |
| 6 | 12/23 | 19:00 | 36 | 26 | 69 | 29.94 | SW | 3 | 0.00 |
| 7 | 12/23 | 18:00 | 37 | 25 | 63 | 29.92 | SW | 3 | 0.00 |
| 8 | 12/23 | 17:00 | 42 | 24 | 49 | 29.90 | SSW | 3 | 0.00 |
| 9 | 12/23 | 16:00 | 46 | 22 | 39 | 29.88 | WSW | 4 | 0.00 |
| 10 | 12/23 | 15:00 | 47 | 20 | 35 | 29.88 | SSW | 7 | 0.00 |
| 11 | 12/23 | 14:00 | 46 | 21 | 37 | 29.89 | SSW | 7 | 0.00 |
| 12 | 12/23 | 13:00 | 44 | 19 | 37 | 29.93 | SW | 7 | 0.00 |
| 13 | 12/23 | 12:00 | 42 | 24 | 50 | 29.98 | W | 13 | 0.00 |
| 14 | 12/23 | 11:00 | 38 | 22 | 54 | 30.03 | SW | 6 | 0.00 |
| 15 | 12/23 | 10:00 | 35 | 24 | 66 | 30.06 | W | 5 | 0.00 |
| 16 | 12/23 | 09:00 | 31 | 22 | 71 | 30.07 | SW | 4 | 0.00 |
| 17 | 12/23 | 08:00 | 28 | 22 | 81 | 30.07 | SW | 5 | 0.00 |
| 18 | 12/23 | 07:00 | 28 | 23 | 83 | 30.06 | WSW | 6 | 0.00 |
| 19 | 12/23 | 06:00 | 29 | 24 | 82 | 30.05 | SW | 6 | 0.00 |
| 20 | 12/23 | 05:00 | 30 | 23 | 78 | 30.04 | SSW | 4 | 0.00 |
| 21 | 12/23 | 04:00 | 31 | 25 | 79 | 30.04 | WSW | 3 | 0.00 |
| 22 | 12/23 | 03:00 | 30 | 24 | 80 | 30.03 | SW | 5 | 0.00 |
| 23 | 12/23 | 02:00 | 30 | 24 | 79 | 30.02 | WNW | 4 | 0.00 |
| 24 | 12/23 | 01:00 | 30 | 23 | 78 | 30.01 | WSW | 0 | 0.00 |